In Rescue
 
Open Full Screen Window  High Contrast Mode
Wind Gusting 00 knots
03
March 29, 2020 7:01 PM CDT
Weather Information
Wind Direction
  280 °
Wind Speed
  03 kt (3 mph)
Wind Gust
  00 kt (0 mph)
Altimeter
29.94 in
Visibility
10 SM
Temperature
08° C
46° F
Dewpoint
-03° C
27° F
Humidity
46%
1hr Rain Fall
00.00 in.
24hr Rain Fall
00.60 in.
Sky Condition
Clear
VFR

METAR KPNM 300001Z AUTO 28003KT 10SM CLR 08/M03 A2994 RMK AO2

FAA Disclaimer: The data displayed is for advisory purposes only and is not to be used for flight planning or operations.